Time;durP1;ratioP1;P1;durP2;ratioP2;P2;SDS_P1;SDS_P2;PMS_P1;PMS_P2;Temp;Humidity;BMP_temperature;BMP_pressure;BME280_temperature;BME280_humidity;BME280_pressure;Samples;Min_cycle;Max_cycle;Signal;HPM_P1;HPM_P2
2023/10/09 00:01:13;;;;;;;12.70;8.10;;;20.60;98.50;;;;;;7400377;19;19926;-73
2023/10/09 00:03:50;;;;;;;13.90;8.70;;;20.70;98.60;;;;;;7404426;19;19914;-72
2023/10/09 00:06:16;;;;;;;12.52;8.35;;;20.60;98.60;;;;;;7381694;19;19922;-72
2023/10/09 00:08:48;;;;;;;12.00;8.77;;;20.60;98.60;;;;;;7401219;19;20916;-71
2023/10/09 00:11:18;;;;;;;13.13;8.93;;;20.60;98.60;;;;;;7403791;19;20251;-73
2023/10/09 00:14:06;;;;;;;14.35;8.77;;;20.60;98.60;;;;;;7403859;19;19923;-73
2023/10/09 00:16:46;;;;;;;14.38;8.32;;;20.60;98.60;;;;;;7403084;19;20295;-72
2023/10/09 00:19:14;;;;;;;15.75;9.15;;;20.50;98.60;;;;;;7402079;19;19910;-72
2023/10/09 00:21:48;;;;;;;14.82;9.27;;;20.50;98.70;;;;;;7406003;19;19919;-71
2023/10/09 00:24:24;;;;;;;14.88;9.18;;;20.50;99.10;;;;;;7402750;19;19931;-72
2023/10/09 00:26:51;;;;;;;14.52;8.57;;;20.50;98.90;;;;;;7403613;19;19922;-72
2023/10/09 00:29:23;;;;;;;13.23;9.32;;;20.40;99.00;;;;;;7402185;19;19928;-73
2023/10/09 00:31:55;;;;;;;15.77;9.73;;;20.50;99.10;;;;;;7404854;19;19915;-73
2023/10/09 00:34:22;;;;;;;15.15;9.52;;;20.50;99.00;;;;;;7404281;19;19923;-72
2023/10/09 00:36:51;;;;;;;15.60;8.75;;;20.50;99.00;;;;;;7405192;19;19918;-72
2023/10/09 00:42:27;;;;;;;13.05;8.18;;;20.50;99.00;;;;;;7403688;19;19915;-72
2023/10/09 00:44:53;;;;;;;13.63;8.32;;;20.50;99.10;;;;;;7401864;19;19915;-72
2023/10/09 00:47:34;;;;;;;15.18;9.35;;;20.40;99.10;;;;;;7402112;19;20033;-72
2023/10/09 00:50:01;;;;;;;12.00;8.50;;;20.50;99.20;;;;;;7404497;19;19918;-72
2023/10/09 00:52:34;;;;;;;13.25;9.10;;;20.40;99.20;;;;;;7400035;19;19933;-73
2023/10/09 00:57:59;;;;;;;13.60;8.55;;;20.50;99.40;;;;;;7402699;19;19929;-73
2023/10/09 01:03:40;;;;;;;16.15;9.48;;;20.50;99.40;;;;;;7404676;19;19939;-72
2023/10/09 01:06:16;;;;;;;16.30;9.98;;;20.40;99.30;;;;;;7403071;19;19927;-73
2023/10/09 01:11:18;;;;;;;16.48;9.88;;;20.40;99.30;;;;;;7402734;19;19998;-72
2023/10/09 01:16:16;;;;;;;16.25;9.70;;;20.30;99.50;;;;;;7403018;19;19918;-72
2023/10/09 01:18:50;;;;;;;15.07;8.90;;;20.30;99.60;;;;;;7404656;19;20353;-72
2023/10/09 01:21:17;;;;;;;15.27;10.00;;;20.30;99.50;;;;;;7402886;19;19918;-73
2023/10/09 01:26:39;;;;;;;16.48;9.25;;;20.20;99.60;;;;;;7401340;19;19922;-72
2023/10/09 01:29:10;;;;;;;20.08;10.95;;;20.20;99.70;;;;;;7399791;19;20327;-72
2023/10/09 01:31:43;;;;;;;17.67;11.45;;;20.20;99.70;;;;;;7402399;19;19971;-73
2023/10/09 01:34:09;;;;;;;16.52;11.30;;;20.20;99.90;;;;;;7402706;19;19919;-73
2023/10/09 01:36:39;;;;;;;16.08;10.05;;;20.20;99.90;;;;;;7403907;19;19941;-73
2023/10/09 01:39:08;;;;;;;18.25;10.85;;;20.20;99.90;;;;;;7398714;19;20295;-73
2023/10/09 01:41:34;;;;;;;17.15;10.10;;;20.20;99.80;;;;;;7402667;19;19918;-73
2023/10/09 01:44:11;;;;;;;15.88;10.48;;;20.20;99.80;;;;;;7401626;19;19965;-72
2023/10/09 01:46:37;;;;;;;16.85;10.48;;;20.20;99.80;;;;;;7399664;19;20345;-74
2023/10/09 01:49:09;;;;;;;17.48;11.07;;;20.10;99.70;;;;;;7401898;19;19926;-73
2023/10/09 01:51:38;;;;;;;18.73;10.18;;;20.10;99.70;;;;;;7401552;19;20022;-73
2023/10/09 01:54:04;;;;;;;14.02;9.75;;;20.10;99.80;;;;;;7397472;19;20337;-75
2023/10/09 01:56:30;;;;;;;16.38;10.07;;;20.10;99.90;;;;;;7403953;19;19922;-72
2023/10/09 01:59:02;;;;;;;18.50;10.95;;;20.10;99.80;;;;;;7401350;19;19930;-73
2023/10/09 02:01:28;;;;;;;17.48;9.90;;;20.10;99.80;;;;;;7401245;19;19919;-72
2023/10/09 02:03:54;;;;;;;18.80;12.20;;;20.10;99.80;;;;;;7403132;19;20266;-73
2023/10/09 02:06:32;;;;;;;15.50;9.77;;;20.20;99.80;;;;;;7401522;19;20825;-73
2023/10/09 02:08:59;;;;;;;13.85;10.43;;;20.20;99.70;;;;;;7399765;19;19986;-73
2023/10/09 02:11:36;;;;;;;14.63;10.35;;;20.20;99.60;;;;;;7401503;19;20250;-73
2023/10/09 02:14:15;;;;;;;15.35;10.98;;;20.10;99.60;;;;;;7400675;19;19931;-73
2023/10/09 02:16:41;;;;;;;15.38;9.68;;;20.10;99.50;;;;;;7398679;19;19914;-72
2023/10/09 02:19:26;;;;;;;16.23;10.30;;;20.20;99.50;;;;;;7401630;19;20315;-72
2023/10/09 02:21:53;;;;;;;15.80;10.88;;;20.10;99.60;;;;;;7402757;19;19950;-72
2023/10/09 02:24:28;;;;;;;17.08;11.98;;;20.20;99.40;;;;;;7399992;19;20274;-72
2023/10/09 02:29:23;;;;;;;14.20;10.48;;;20.20;99.00;;;;;;7400054;19;19918;-74
2023/10/09 02:31:55;;;;;;;14.25;9.73;;;20.20;99.10;;;;;;7398604;19;19943;-72
2023/10/09 02:34:25;;;;;;;16.08;10.90;;;20.20;99.20;;;;;;7399474;19;19914;-72
2023/10/09 02:36:57;;;;;;;18.90;11.15;;;20.20;99.10;;;;;;7401495;19;19944;-72
2023/10/09 02:39:26;;;;;;;17.75;11.80;;;20.20;99.30;;;;;;7399843;19;19931;-73
2023/10/09 02:44:46;;;;;;;17.75;10.90;;;20.20;99.40;;;;;;7401279;19;19941;-72
2023/10/09 02:47:29;;;;;;;14.20;9.95;;;20.20;99.10;;;;;;7396522;19;19918;-73
2023/10/09 02:50:06;;;;;;;14.45;9.27;;;20.20;99.00;;;;;;7399504;19;19911;-72
2023/10/09 02:52:40;;;;;;;15.07;10.13;;;20.00;98.90;;;;;;7398248;19;19906;-72
2023/10/09 02:55:12;;;;;;;14.63;9.13;;;20.00;99.10;;;;;;7396931;19;19918;-71
2023/10/09 02:57:41;;;;;;;14.52;10.13;;;20.00;99.30;;;;;;7401165;19;19923;-73
2023/10/09 03:00:09;;;;;;;16.63;10.30;;;20.00;99.20;;;;;;7398338;19;19915;-72
2023/10/09 03:02:39;;;;;;;15.23;10.18;;;19.90;99.30;;;;;;7398346;19;19922;-73
2023/10/09 03:05:11;;;;;;;16.75;10.23;;;20.00;99.50;;;;;;7395376;19;19937;-73
2023/10/09 03:07:39;;;;;;;15.63;10.32;;;19.90;99.30;;;;;;7378317;19;19918;-73
2023/10/09 03:10:09;;;;;;;16.20;10.40;;;19.90;99.30;;;;;;7396430;19;20735;-72
2023/10/09 03:12:35;;;;;;;16.10;9.52;;;19.90;99.20;;;;;;7400019;19;19974;-72
2023/10/09 03:15:03;;;;;;;15.40;10.88;;;19.90;99.30;;;;;;7402281;19;19923;-72
2023/10/09 03:17:29;;;;;;;15.73;10.18;;;19.90;99.20;;;;;;7406295;19;20385;-72
2023/10/09 03:19:55;;;;;;;14.80;9.05;;;19.90;99.10;;;;;;7403288;19;20334;-72
2023/10/09 03:22:21;;;;;;;11.98;8.27;;;19.90;99.00;;;;;;7386121;19;19929;-72
2023/10/09 03:24:49;;;;;;;16.90;9.38;;;19.90;98.70;;;;;;7403568;19;20330;-73
2023/10/09 03:27:15;;;;;;;13.70;9.48;;;19.90;98.40;;;;;;7405477;19;19922;-73
2023/10/09 03:29:41;;;;;;;12.43;7.88;;;19.90;98.60;;;;;;7403314;19;19915;-72
2023/10/09 03:32:08;;;;;;;13.18;8.77;;;19.90;98.50;;;;;;7402705;19;19932;-72
2023/10/09 03:34:34;;;;;;;14.95;8.93;;;19.80;98.60;;;;;;7405424;19;19926;-72
2023/10/09 03:37:20;;;;;;;14.00;8.65;;;19.80;98.60;;;;;;7407787;19;19914;-72
2023/10/09 03:39:51;;;;;;;12.85;9.23;;;19.80;98.70;;;;;;7405162;19;20408;-72
2023/10/09 03:42:20;;;;;;;14.43;9.35;;;19.80;98.70;;;;;;7402826;19;20036;-72
2023/10/09 03:44:53;;;;;;;16.52;9.10;;;19.80;98.60;;;;;;7406038;19;19929;-72
2023/10/09 03:47:27;;;;;;;13.82;9.00;;;19.80;98.60;;;;;;7402652;19;19962;-71
2023/10/09 03:49:53;;;;;;;15.20;9.52;;;19.70;98.50;;;;;;7404245;19;20370;-72
2023/10/09 03:52:19;;;;;;;15.30;9.55;;;19.70;98.50;;;;;;7402219;19;19926;-72
2023/10/09 03:54:49;;;;;;;14.35;8.98;;;19.70;98.70;;;;;;7405355;19;19925;-71
2023/10/09 03:57:19;;;;;;;17.42;9.73;;;19.70;98.80;;;;;;7403815;19;19929;-72
2023/10/09 03:59:51;;;;;;;13.82;9.38;;;19.70;98.70;;;;;;7405347;19;19937;-72
2023/10/09 04:02:17;;;;;;;14.70;10.20;;;19.80;98.60;;;;;;7402041;19;19926;-72
2023/10/09 04:04:46;;;;;;;14.95;10.82;;;19.80;98.60;;;;;;7406191;19;20005;-72
2023/10/09 04:07:16;;;;;;;14.02;9.55;;;19.70;98.60;;;;;;7403330;19;19922;-71
2023/10/09 04:09:44;;;;;;;15.35;10.68;;;19.70;98.50;;;;;;7404350;19;20298;-72
2023/10/09 04:22:59;;;;;;;14.88;9.43;;;19.60;98.60;;;;;;7400271;19;19910;-71
2023/10/09 04:25:25;;;;;;;16.30;10.55;;;19.70;98.70;;;;;;7403954;19;19919;-73
2023/10/09 04:28:09;;;;;;;18.65;9.60;;;19.60;98.60;;;;;;7402915;19;19914;-71
2023/10/09 04:30:46;;;;;;;13.75;9.40;;;19.70;98.60;;;;;;7402241;19;19918;-72
2023/10/09 04:41:33;;;;;;;16.02;10.57;;;19.60;98.30;;;;;;7403468;19;19925;-71
2023/10/09 04:46:44;;;;;;;13.82;9.38;;;19.70;98.30;;;;;;7404583;19;19928;-71
2023/10/09 04:52:09;;;;;;;15.52;9.82;;;19.60;98.00;;;;;;7400507;19;19918;-72
2023/10/09 04:55:02;;;;;;;15.50;11.35;;;19.60;98.10;;;;;;7402244;19;19970;-72
2023/10/09 04:57:26;;;;;;;15.10;9.60;;;19.60;98.20;;;;;;7403856;19;19918;-72
2023/10/09 04:59:53;;;;;;;15.52;10.65;;;19.60;98.30;;;;;;7402567;19;20335;-72
2023/10/09 05:02:19;;;;;;;16.83;10.68;;;19.60;98.20;;;;;;7402767;19;19982;-72
2023/10/09 05:04:51;;;;;;;17.08;10.50;;;19.60;98.20;;;;;;7403103;19;19930;-71
2023/10/09 05:07:23;;;;;;;17.80;10.55;;;19.60;98.10;;;;;;7400918;19;19918;-77
2023/10/09 05:09:56;;;;;;;16.75;11.38;;;19.60;98.10;;;;;;7401642;19;19945;-72
2023/10/09 05:12:26;;;;;;;16.10;10.73;;;19.60;98.00;;;;;;7401222;19;20848;-71
2023/10/09 05:15:08;;;;;;;15.52;10.30;;;19.70;97.90;;;;;;7402248;19;19922;-73
2023/10/09 05:17:35;;;;;;;19.15;12.32;;;19.70;97.80;;;;;;7401093;19;19930;-72
2023/10/09 05:22:57;;;;;;;20.02;11.93;;;19.70;97.70;;;;;;7402646;19;20274;-71
2023/10/09 05:26:26;;;;;;;15.38;9.98;;;19.80;97.70;;;;;;7403110;19;21140;-72
2023/10/09 05:31:07;;;;;;;16.73;10.52;;;19.70;97.30;;;;;;7404859;19;20257;-72
2023/10/09 05:33:38;;;;;;;15.32;10.32;;;19.60;97.20;;;;;;7400953;19;19922;-72
2023/10/09 05:39:17;;;;;;;14.93;9.68;;;19.60;97.20;;;;;;7403265;19;19915;-72
2023/10/09 05:41:59;;;;;;;13.88;9.00;;;19.60;96.90;;;;;;7400045;19;20367;-72
2023/10/09 06:06:05;;;;;;;14.45;9.65;;;19.70;96.40;;;;;;7405039;19;19915;-72
2023/10/09 06:14:25;;;;;;;17.95;10.50;;;19.60;96.40;;;;;;7402642;19;19929;-73
2023/10/09 06:24:41;;;;;;;18.38;10.55;;;19.70;96.20;;;;;;7400170;19;19946;-72
2023/10/09 06:29:36;;;;;;;19.85;11.05;;;19.80;95.90;;;;;;7402910;19;19922;-71
2023/10/09 06:34:52;;;;;;;17.55;9.80;;;19.90;95.70;;;;;;7403195;19;19924;-72
2023/10/09 06:42:34;;;;;;;19.25;11.48;;;20.10;95.10;;;;;;7401631;19;20448;-73
2023/10/09 06:45:16;;;;;;;14.30;10.50;;;20.20;95.00;;;;;;7402273;19;20365;-73
2023/10/09 06:48:40;;;;;;;17.35;11.23;;;20.30;95.00;;;;;;7400407;19;19918;-72
2023/10/09 06:50:56;;;;;;;16.67;10.90;;;20.40;94.70;;;;;;7400848;19;19919;-73
2023/10/09 06:53:28;;;;;;;19.20;11.63;;;20.50;94.40;;;;;;7397984;19;19943;-72
2023/10/09 06:56:05;;;;;;;16.65;11.10;;;20.50;94.40;;;;;;7401883;19;19937;-73
2023/10/09 06:58:41;;;;;;;16.95;11.80;;;20.50;94.30;;;;;;7402593;19;19937;-71
2023/10/09 07:01:25;;;;;;;16.15;10.95;;;20.70;94.20;;;;;;7356306;19;19914;-72
2023/10/09 07:03:54;;;;;;;15.82;11.35;;;20.80;93.70;;;;;;7400916;19;20315;-72
2023/10/09 07:06:23;;;;;;;16.95;11.20;;;20.90;93.40;;;;;;7396531;19;19914;-73
2023/10/09 07:17:26;;;;;;;18.05;12.10;;;21.10;92.80;;;;;;7393595;19;20562;-72
2023/10/09 07:24:56;;;;;;;25.73;14.30;;;21.30;92.20;;;;;;7399514;19;20748;-73
2023/10/09 07:27:48;;;;;;;19.13;11.48;;;21.30;91.80;;;;;;7396582;19;19949;-72
2023/10/09 07:38:14;;;;;;;12.25;7.97;;;21.60;91.00;;;;;;7396848;19;19918;-73
2023/10/09 07:43:47;;;;;;;11.35;7.43;;;21.70;90.20;;;;;;7397163;19;19930;-73
2023/10/09 07:46:33;;;;;;;15.93;8.43;;;21.80;90.20;;;;;;7396381;19;19923;-73
2023/10/09 07:49:08;;;;;;;14.00;8.15;;;21.80;90.40;;;;;;7399320;19;19926;-73
2023/10/09 07:51:37;;;;;;;13.93;8.10;;;22.00;90.10;;;;;;7395096;19;19929;-72
2023/10/09 07:54:07;;;;;;;16.40;8.38;;;22.00;90.00;;;;;;7396912;19;20026;-72
2023/10/09 07:56:45;;;;;;;12.57;7.63;;;22.10;88.70;;;;;;7396257;19;19923;-73
2023/10/09 07:59:12;;;;;;;13.20;8.73;;;22.10;88.00;;;;;;7399839;19;19914;-73
2023/10/09 08:01:58;;;;;;;15.15;7.60;;;22.20;87.80;;;;;;7401521;19;20381;-72
2023/10/09 08:04:37;;;;;;;11.55;7.35;;;22.20;88.00;;;;;;7403364;19;19926;-73
2023/10/09 08:07:19;;;;;;;11.18;7.53;;;22.20;88.90;;;;;;7396327;19;20346;-72
2023/10/09 08:10:43;;;;;;;10.63;6.85;;;22.10;89.10;;;;;;7405887;19;19918;-73
2023/10/09 08:15:20;;;;;;;11.98;7.65;;;22.60;89.30;;;;;;7392469;19;20266;-72
2023/10/09 08:18:03;;;;;;;11.43;7.22;;;24.40;81.90;;;;;;7394011;19;19922;-72
2023/10/09 08:20:51;;;;;;;11.35;8.10;;;24.30;75.50;;;;;;7403384;19;19914;-72
2023/10/09 08:23:33;;;;;;;11.40;7.45;;;23.60;78.80;;;;;;7404435;19;19933;-71
2023/10/09 08:26:15;;;;;;;13.65;6.97;;;23.20;81.00;;;;;;7402497;19;19986;-73
2023/10/09 08:28:45;;;;;;;10.80;7.63;;;23.00;82.90;;;;;;7394252;19;20492;-72
2023/10/09 08:31:19;;;;;;;13.18;7.35;;;22.90;84.30;;;;;;7391680;19;19915;-73
2023/10/09 08:34:09;;;;;;;9.35;6.78;;;23.10;84.20;;;;;;7401517;19;19914;-73
2023/10/09 08:36:38;;;;;;;14.27;8.10;;;23.20;82.40;;;;;;7396970;19;19918;-73
2023/10/09 08:39:25;;;;;;;9.43;6.68;;;23.30;81.70;;;;;;7400889;19;20636;-73
2023/10/09 08:41:57;;;;;;;11.48;6.40;;;23.50;80.70;;;;;;7392287;19;20470;-72
2023/10/09 08:44:26;;;;;;;13.65;7.05;;;23.60;79.90;;;;;;7383888;19;19939;-72
2023/10/09 08:46:55;;;;;;;11.65;7.43;;;23.90;78.30;;;;;;7398265;19;19942;-72
2023/10/09 08:49:24;;;;;;;10.98;5.93;;;23.70;77.00;;;;;;7396573;19;19911;-72
2023/10/09 08:51:52;;;;;;;8.63;5.88;;;23.90;77.00;;;;;;7395678;19;20338;-72
2023/10/09 08:54:19;;;;;;;12.85;6.32;;;24.00;77.20;;;;;;7402467;19;19931;-73
2023/10/09 08:56:51;;;;;;;10.38;6.80;;;24.30;75.10;;;;;;7393656;19;19914;-73
2023/10/09 08:59:20;;;;;;;13.32;6.28;;;24.30;74.90;;;;;;7402367;19;19907;-73
2023/10/09 09:01:51;;;;;;;13.50;6.70;;;24.30;74.20;;;;;;7400067;19;19911;-73
2023/10/09 09:04:38;;;;;;;10.88;6.35;;;24.20;73.70;;;;;;7387518;19;19918;-73
2023/10/09 09:07:05;;;;;;;13.43;6.55;;;24.40;73.80;;;;;;7387936;19;19918;-73
2023/10/09 09:09:33;;;;;;;9.13;5.70;;;24.40;73.70;;;;;;7401979;19;19998;-73
2023/10/09 09:12:00;;;;;;;13.95;6.57;;;24.50;72.20;;;;;;7400320;19;19927;-72
2023/10/09 09:14:39;;;;;;;8.38;5.70;;;24.70;71.60;;;;;;7391812;19;20295;-73
2023/10/09 09:17:10;;;;;;;9.95;6.25;;;24.70;70.20;;;;;;7386005;19;19993;-73
2023/10/09 09:19:38;;;;;;;15.40;7.57;;;24.70;70.60;;;;;;7398323;19;20035;-72
2023/10/09 09:22:14;;;;;;;13.65;6.50;;;24.90;70.50;;;;;;7396549;19;19933;-73
2023/10/09 09:25:00;;;;;;;10.48;6.50;;;24.80;70.10;;;;;;7398793;19;19926;-73
2023/10/09 09:27:49;;;;;;;14.23;6.63;;;25.00;69.40;;;;;;7402131;19;19934;-74
2023/10/09 09:30:33;;;;;;;11.52;6.63;;;24.70;70.90;;;;;;7403626;19;19937;-72
2023/10/09 09:33:20;;;;;;;14.05;7.43;;;24.60;71.30;;;;;;7402203;19;19994;-73
2023/10/09 09:36:12;;;;;;;12.68;7.10;;;24.70;71.70;;;;;;7375158;19;19906;-71
2023/10/09 09:38:47;;;;;;;13.45;7.50;;;24.70;71.90;;;;;;7389287;19;20365;-72
2023/10/09 09:41:24;;;;;;;13.77;7.53;;;24.90;71.30;;;;;;7375534;19;19918;-72
2023/10/09 09:44:00;;;;;;;11.82;6.90;;;25.00;70.60;;;;;;7401503;19;19922;-74
2023/10/09 09:46:36;;;;;;;10.95;6.88;;;24.70;71.10;;;;;;7390400;19;19918;-71
2023/10/09 09:49:16;;;;;;;12.13;7.50;;;25.00;70.80;;;;;;7395644;19;19935;-72
2023/10/09 09:51:44;;;;;;;12.07;6.75;;;25.20;68.70;;;;;;7397387;19;19945;-72
2023/10/09 09:54:15;;;;;;;12.93;7.10;;;25.50;67.60;;;;;;7398572;19;20285;-73
2023/10/09 09:56:50;;;;;;;14.73;7.88;;;25.70;65.80;;;;;;7371058;19;19997;-72
2023/10/09 09:59:27;;;;;;;12.40;8.10;;;25.70;66.50;;;;;;7395945;19;19951;-73
2023/10/09 10:02:06;;;;;;;16.60;8.30;;;25.80;66.90;;;;;;7395599;19;20005;-72
2023/10/09 10:04:35;;;;;;;13.82;7.95;;;26.00;65.90;;;;;;7400788;19;19948;-73
2023/10/09 10:07:12;;;;;;;14.20;8.65;;;25.80;66.50;;;;;;7399850;19;19926;-73
2023/10/09 10:09:40;;;;;;;12.60;7.47;;;25.70;66.80;;;;;;7400076;19;19918;-72
2023/10/09 10:12:10;;;;;;;12.90;7.32;;;26.00;67.10;;;;;;7397874;19;20377;-73
2023/10/09 10:14:59;;;;;;;12.10;7.30;;;26.30;63.80;;;;;;7400531;19;19926;-72
2023/10/09 10:17:27;;;;;;;15.82;7.53;;;26.40;62.40;;;;;;7398153;19;19911;-73
2023/10/09 10:20:14;;;;;;;15.35;7.45;;;26.80;61.90;;;;;;7386319;19;19982;-72
2023/10/09 10:22:47;;;;;;;10.98;6.80;;;26.90;60.00;;;;;;7390665;19;19915;-72
2023/10/09 10:25:35;;;;;;;15.88;8.05;;;27.30;58.90;;;;;;7390427;19;19929;-71
2023/10/09 10:28:38;;;;;;;13.60;6.93;;;27.20;57.30;;;;;;7397604;19;19918;-71
2023/10/09 10:31:09;;;;;;;14.25;8.10;;;27.40;57.70;;;;;;7391138;19;19906;-72
2023/10/09 10:33:54;;;;;;;14.02;8.05;;;27.30;57.50;;;;;;7394451;19;19919;-72
2023/10/09 10:36:22;;;;;;;12.45;7.53;;;27.30;58.20;;;;;;7397899;19;19928;-72
2023/10/09 10:39:10;;;;;;;12.05;8.32;;;27.50;57.30;;;;;;7383893;19;20326;-72
2023/10/09 10:41:50;;;;;;;15.82;8.23;;;28.00;55.70;;;;;;7368903;19;19914;-72
2023/10/09 10:44:36;;;;;;;12.55;7.40;;;27.90;55.70;;;;;;7390869;19;19970;-71
2023/10/09 10:47:22;;;;;;;12.13;7.40;;;28.20;54.80;;;;;;7357200;19;19918;-72
2023/10/09 10:49:50;;;;;;;15.05;7.82;;;28.60;52.40;;;;;;7389337;19;19922;-72
2023/10/09 10:52:35;;;;;;;11.88;7.57;;;28.60;51.60;;;;;;7398974;19;20349;-72
2023/10/09 10:58:13;;;;;;;13.50;8.13;;;28.50;50.60;;;;;;7400278;19;19925;-71
2023/10/09 11:06:13;;;;;;;10.93;7.15;;;29.00;52.10;;;;;;7389589;19;19938;-73
2023/10/09 11:08:54;;;;;;;11.68;7.05;;;28.60;52.60;;;;;;7373804;19;19914;-72
2023/10/09 11:11:20;;;;;;;13.27;8.57;;;28.10;53.10;;;;;;7384135;19;20052;-73
2023/10/09 11:13:54;;;;;;;12.13;7.05;;;28.60;53.10;;;;;;7395530;19;19919;-72
2023/10/09 11:16:41;;;;;;;13.98;8.05;;;28.80;50.90;;;;;;7361405;19;19925;-73
2023/10/09 11:21:58;;;;;;;14.77;7.50;;;28.40;53.50;;;;;;7393327;19;19974;-72
2023/10/09 11:24:27;;;;;;;12.13;6.63;;;28.70;50.80;;;;;;7397498;19;20319;-73
2023/10/09 11:26:55;;;;;;;13.35;7.57;;;28.80;50.50;;;;;;7399060;19;19918;-72
2023/10/09 11:32:05;;;;;;;14.70;7.45;;;28.90;51.00;;;;;;7400755;19;19957;-72
2023/10/09 11:34:32;;;;;;;9.57;6.93;;;29.10;50.80;;;;;;7401927;19;19915;-72
2023/10/09 11:37:02;;;;;;;13.88;7.50;;;29.10;50.40;;;;;;7405174;19;19911;-72
2023/10/09 11:39:34;;;;;;;15.55;7.00;;;28.70;49.90;;;;;;7407601;19;19919;-72
2023/10/09 11:42:14;;;;;;;11.10;7.15;;;28.80;50.30;;;;;;7405148;19;20018;-72
2023/10/09 11:44:44;;;;;;;10.68;7.80;;;28.90;50.90;;;;;;7408286;19;19923;-72
2023/10/09 11:52:45;;;;;;;13.55;8.20;;;28.80;50.70;;;;;;7405601;19;20319;-73
2023/10/09 11:55:15;;;;;;;12.98;7.65;;;28.90;52.90;;;;;;7405401;19;19910;-75
2023/10/09 11:57:41;;;;;;;12.65;7.15;;;29.50;51.30;;;;;;7404270;19;19930;-73
2023/10/09 12:00:27;;;;;;;11.90;6.80;;;29.40;49.90;;;;;;7389427;19;19954;-73
2023/10/09 12:02:54;;;;;;;9.93;7.60;;;29.30;49.00;;;;;;7397879;19;19922;-73
2023/10/09 12:05:19;;;;;;;;;;;28.20;51.20;;;;;;7402819;19;19925;-73
2023/10/09 12:07:46;;;;;;;12.82;7.00;;;28.50;52.40;;;;;;7404191;19;19915;-73
2023/10/09 12:10:15;;;;;;;10.13;7.30;;;28.50;52.70;;;;;;7401135;19;19932;-72
2023/10/09 12:12:46;;;;;;;10.55;6.85;;;28.20;53.60;;;;;;7401727;19;19917;-72
2023/10/09 12:15:17;;;;;;;13.90;7.10;;;28.50;53.60;;;;;;7402773;19;19931;-73
2023/10/09 12:17:46;;;;;;;12.13;7.28;;;29.20;51.40;;;;;;7404319;19;20386;-72
2023/10/09 12:20:31;;;;;;;12.82;7.00;;;29.10;50.90;;;;;;7403396;19;19919;-72
2023/10/09 12:23:00;;;;;;;11.02;6.57;;;29.60;49.40;;;;;;7397800;19;19937;-74
2023/10/09 12:25:31;;;;;;;11.68;6.80;;;29.20;50.10;;;;;;7402786;19;19919;-71
2023/10/09 12:27:57;;;;;;;10.45;6.57;;;29.30;50.50;;;;;;7391866;19;20617;-73
2023/10/09 12:30:29;;;;;;;11.80;6.15;;;28.50;51.60;;;;;;7392365;19;19942;-73
2023/10/09 12:32:59;;;;;;;11.77;8.13;;;28.80;51.40;;;;;;7394643;19;19931;-71
2023/10/09 12:35:25;;;;;;;;;;;28.70;51.60;;;;;;7392233;19;20323;-72
2023/10/09 12:37:56;;;;;;;11.05;6.30;;;29.20;49.80;;;;;;7393890;19;19949;-72
2023/10/09 12:40:29;;;;;;;12.30;6.43;;;28.90;51.10;;;;;;7388300;19;19918;-72
2023/10/09 12:42:55;;;;;;;8.98;6.38;;;29.20;51.10;;;;;;7401860;19;19914;-73
2023/10/09 12:45:32;;;;;;;10.63;5.40;;;29.70;50.10;;;;;;7399569;19;20429;-73
2023/10/09 12:47:59;;;;;;;9.40;5.63;;;29.10;50.10;;;;;;7396939;19;19942;-72
2023/10/09 12:50:28;;;;;;;8.18;5.55;;;29.50;50.40;;;;;;7394878;19;19963;-73
2023/10/09 12:53:01;;;;;;;8.40;6.30;;;30.10;47.80;;;;;;7401506;19;20614;-74
2023/10/09 12:55:34;;;;;;;10.73;6.22;;;29.90;46.80;;;;;;7405921;19;20318;-73
2023/10/09 12:58:06;;;;;;;10.10;6.25;;;29.60;48.00;;;;;;7397337;19;19919;-72
2023/10/09 13:00:36;;;;;;;8.30;5.43;;;30.10;47.20;;;;;;7366844;19;20350;-73
2023/10/09 13:03:13;;;;;;;11.05;6.70;;;30.10;45.00;;;;;;7399752;19;19918;-72
2023/10/09 13:05:51;;;;;;;9.52;5.60;;;29.30;46.10;;;;;;7390891;19;19937;-72
2023/10/09 13:08:21;;;;;;;10.32;5.82;;;29.50;47.60;;;;;;7397959;19;19998;-73
2023/10/09 13:10:55;;;;;;;12.13;5.30;;;30.20;46.40;;;;;;7390253;19;19919;-71
2023/10/09 13:13:21;;;;;;;12.57;5.88;;;30.20;45.70;;;;;;7401175;19;19927;-73
2023/10/09 13:15:47;;;;;;;12.13;6.30;;;30.70;44.80;;;;;;7404573;19;19929;-74
2023/10/09 13:18:14;;;;;;;;;;;30.40;45.20;;;;;;7401290;19;19919;-71
2023/10/09 13:20:40;;;;;;;10.75;5.18;;;29.30;45.80;;;;;;7396840;19;19929;-72
2023/10/09 13:23:07;;;;;;;8.10;5.50;;;29.10;48.00;;;;;;7401853;19;19918;-73
2023/10/09 13:25:39;;;;;;;;;;;30.20;45.30;;;;;;7398837;19;19926;-73
2023/10/09 13:28:05;;;;;;;9.57;6.25;;;29.20;46.00;;;;;;7390536;19;19914;-73
2023/10/09 13:30:38;;;;;;;12.45;5.82;;;30.20;44.80;;;;;;7404787;19;20461;-75
2023/10/09 13:33:05;;;;;;;9.48;5.43;;;29.70;47.20;;;;;;7400077;19;19922;-72
2023/10/09 13:35:37;;;;;;;11.40;5.90;;;29.90;43.30;;;;;;7404913;19;20023;-73
2023/10/09 13:38:08;;;;;;;10.50;5.70;;;29.60;45.60;;;;;;7394726;19;19945;-73
2023/10/09 13:40:35;;;;;;;11.65;5.90;;;30.20;42.60;;;;;;7394567;19;19928;-74
2023/10/09 13:43:01;;;;;;;8.95;5.15;;;30.10;42.10;;;;;;7400673;19;19935;-74
2023/10/09 13:45:27;;;;;;;;;;;30.20;42.60;;;;;;7402551;19;20268;-71
2023/10/09 13:47:57;;;;;;;10.23;5.72;;;30.60;40.90;;;;;;7400705;19;19918;-73
2023/10/09 13:50:32;;;;;;;9.65;5.45;;;30.10;41.50;;;;;;7402726;19;19942;-72
2023/10/09 13:53:00;;;;;;;8.07;5.55;;;29.70;41.80;;;;;;7402057;19;19927;-72
2023/10/09 13:55:33;;;;;;;9.13;5.72;;;29.10;45.00;;;;;;7398796;19;19943;-74
2023/10/09 13:57:59;;;;;;;6.75;5.10;;;28.60;46.20;;;;;;7399867;19;20708;-73
2023/10/09 14:00:41;;;;;;;;;;;27.70;49.30;;;;;;7403329;19;19927;-75
2023/10/09 14:03:19;;;;;;;11.80;5.88;;;28.70;48.50;;;;;;7398686;19;19921;-73
2023/10/09 14:05:56;;;;;;;13.93;5.65;;;28.90;47.00;;;;;;7374702;19;19914;-72
2023/10/09 14:08:23;;;;;;;13.80;6.40;;;29.50;46.30;;;;;;7390634;19;19914;-72
2023/10/09 14:10:52;;;;;;;9.77;6.47;;;29.80;46.40;;;;;;7400322;19;19917;-72
2023/10/09 14:13:25;;;;;;;10.93;5.80;;;29.40;46.40;;;;;;7392586;19;19926;-73
2023/10/09 14:15:54;;;;;;;10.10;5.82;;;29.50;44.30;;;;;;7391370;19;19939;-73
2023/10/09 14:18:22;;;;;;;12.18;6.28;;;29.80;45.50;;;;;;7399613;19;19922;-72
2023/10/09 14:20:49;;;;;;;12.38;6.18;;;29.80;46.60;;;;;;7403176;19;19914;-71
2023/10/09 14:23:20;;;;;;;10.02;7.13;;;29.60;46.80;;;;;;7391788;19;19927;-72
2023/10/09 14:25:49;;;;;;;9.85;6.63;;;30.20;46.10;;;;;;7393765;19;19939;-72
2023/10/09 14:28:18;;;;;;;11.98;6.60;;;29.10;48.70;;;;;;7391102;19;19931;-72
2023/10/09 14:30:48;;;;;;;13.93;7.18;;;28.90;49.60;;;;;;7391061;19;19918;-71
2023/10/09 14:33:22;;;;;;;9.48;6.97;;;29.60;47.00;;;;;;7391772;19;20803;-72
2023/10/09 14:35:48;;;;;;;10.68;6.25;;;30.30;45.40;;;;;;7393367;19;19915;-72
2023/10/09 14:38:15;;;;;;;11.48;6.47;;;29.90;45.80;;;;;;7395174;19;19915;-72
2023/10/09 14:40:45;;;;;;;8.68;5.78;;;29.70;46.60;;;;;;7401076;19;19941;-71
2023/10/09 14:43:22;;;;;;;9.68;6.60;;;29.00;46.20;;;;;;7389114;19;19922;-72
2023/10/09 14:45:48;;;;;;;8.77;6.18;;;28.60;49.10;;;;;;7384493;19;19915;-71
2023/10/09 14:48:18;;;;;;;12.23;5.80;;;28.70;47.90;;;;;;7392844;19;19918;-72
2023/10/09 14:50:53;;;;;;;12.60;6.97;;;28.90;47.60;;;;;;7401622;19;19947;-72
2023/10/09 14:53:19;;;;;;;9.73;5.88;;;29.70;46.90;;;;;;7400913;19;20469;-72
2023/10/09 14:55:55;;;;;;;9.75;6.90;;;30.00;45.70;;;;;;7399771;19;19941;-71
2023/10/09 14:58:24;;;;;;;9.63;6.50;;;29.80;45.20;;;;;;7390897;19;19938;-72
2023/10/09 15:00:51;;;;;;;9.82;6.20;;;28.80;49.20;;;;;;7385680;19;19918;-72
2023/10/09 15:03:19;;;;;;;9.77;6.32;;;28.50;51.20;;;;;;7386953;19;20415;-72
2023/10/09 15:05:46;;;;;;;13.25;7.57;;;28.30;51.40;;;;;;7388625;19;20258;-71
2023/10/09 15:08:12;;;;;;;11.82;6.55;;;28.90;49.60;;;;;;7389228;19;19938;-72
2023/10/09 15:10:48;;;;;;;9.68;5.53;;;29.20;47.60;;;;;;7402318;19;20462;-69
2023/10/09 15:13:16;;;;;;;11.98;7.40;;;28.30;48.60;;;;;;7403863;19;19925;-70
2023/10/09 15:15:43;;;;;;;9.70;5.45;;;27.10;50.90;;;;;;7393590;19;20029;-73
2023/10/09 15:18:12;;;;;;;9.65;6.28;;;27.30;51.20;;;;;;7403639;19;19918;-73
2023/10/09 15:20:41;;;;;;;10.25;6.22;;;27.50;51.60;;;;;;7399568;19;19950;-72
2023/10/09 15:23:08;;;;;;;13.13;5.95;;;27.40;52.10;;;;;;7399558;19;19970;-71
2023/10/09 15:25:34;;;;;;;11.25;6.25;;;28.20;50.80;;;;;;7403421;19;19951;-71
2023/10/09 15:28:00;;;;;;;;;;;27.70;48.40;;;;;;7405535;19;19918;-72
2023/10/09 15:30:28;;;;;;;12.93;6.00;;;28.00;47.60;;;;;;7402726;19;19978;-72
2023/10/09 15:32:56;;;;;;;9.80;5.40;;;28.10;47.50;;;;;;7404172;19;19922;-74